Погода Домингус-Мартинсна неделю

Эспирито-Санто, Бразилия

31 января-06 февраля
  • 31января
    Сегодня
    +19°
    +29°
    Небольшая облачность и лёгкий дождик
    ВремяПогодаТемператураВлажностьДавлениеВетер, м/сВероятность осадков
    00:00Ясно и безоблачно+20°C95 %710 мм2.8 м/с12 %
    03:00Практически безоблачно+19°C95 %709 мм2.9 м/с17 %
    06:00Облачно с прояснениями+19°C94 %709 мм3.1 м/с17 %
    09:00Небольшая облачность+25°C73 %711 мм4.3 м/с38 %
    12:00Небольшая облачность и лёгкий дождик+28°C64 %710 мм3.9 м/с68 %
    15:00Небольшая облачность и лёгкий дождик+27°C74 %709 мм4.2 м/с65 %
    18:00Практически безоблачно+23°C88 %709 мм3.9 м/с45 %
    21:00Небольшая облачность+22°C94 %710 мм3.5 м/с16 %
  • 01февраля
    Среда
    +19°
    +31°
    Облачно с прояснениями
    ВремяПогодаТемператураВлажностьДавлениеВетер, м/сВероятность осадков
    00:00Практически безоблачно+20°C95 %710 мм3.1 м/с4 %
    03:00Небольшая облачность+19°C95 %709 мм3.5 м/с5 %
    06:00Небольшая облачность+20°C93 %709 мм3.8 м/с5 %
    09:00Облачно с прояснениями+26°C69 %711 мм4.8 м/с19 %
    12:00Практически безоблачно+29°C58 %710 мм3.4 м/с36 %
    15:00Облачно с прояснениями+30°C56 %709 мм3.8 м/с43 %
    18:00Ясно и безоблачно+24°C86 %708 мм3.4 м/с26 %
    21:00Небольшая облачность+23°C97 %710 мм3.4 м/с3 %
  • 02февраля
    Четверг
    +19°
    +32°
    Небольшая облачность
    ВремяПогодаТемператураВлажностьДавлениеВетер, м/сВероятность осадков
    00:00Ясно и безоблачно+21°C91 %709 мм3.6 м/с3 %
    03:00Ясно и безоблачно+19°C92 %708 мм3.9 м/с5 %
    06:00Практически безоблачно+19°C92 %709 мм4.3 м/с3 %
    09:00Ясно и безоблачно+27°C69 %711 мм3.4 м/с3 %
    12:00Ясно и безоблачно+30°C54 %710 мм3.4 м/с4 %
    15:00Небольшая облачность+32°C48 %709 мм3.0 м/с19 %
    18:00Ясно и безоблачно+25°C85 %709 мм3.9 м/с30 %
    21:00Ясно и безоблачно+23°C96 %710 мм2.9 м/с11 %
  • 03февраля
    Пятница
    +19°
    +32°
    Ясно и безоблачно
    ВремяПогодаТемператураВлажностьДавлениеВетер, м/сВероятность осадков
    00:00Ясно и безоблачно+21°C91 %709 мм3.5 м/с5 %
    03:00Ясно и безоблачно+20°C88 %709 мм3.8 м/с7 %
    06:00Ясно и безоблачно+19°C83 %709 мм4.3 м/с4 %
    09:00Ясно и безоблачно+27°C50 %710 мм4.2 м/с4 %
    12:00Ясно и безоблачно+31°C39 %710 мм4.1 м/с6 %
    15:00Ясно и безоблачно+32°C43 %708 мм3.8 м/с34 %
    18:00Ясно и безоблачно+26°C77 %707 мм3.1 м/с37 %
    21:00Облачно с прояснениями+23°C95 %709 мм3.2 м/с15 %
  • 04февраля
    Суббота
    +22°
    +33°
    Ясно и безоблачно
    ВремяПогодаТемператураВлажностьДавлениеВетер, м/сВероятность осадков
    00:00Ясно и безоблачно+22°C92 %709 мм3.5 м/с18 %
    03:00Небольшая облачность+21°C94 %708 мм4.2 м/с18 %
    06:00Облачно с прояснениями+20°C89 %708 мм4.7 м/с6 %
    09:00Практически безоблачно+27°C71 %709 мм5.2 м/с6 %
    12:00Ясно и безоблачно+31°C55 %709 мм5.1 м/с18 %
    15:00Ясно и безоблачно+32°C50 %708 мм4.0 м/с44 %
    18:00Ясно и безоблачно+28°C66 %707 мм2.3 м/с45 %
    21:00Ясно и безоблачно+25°C82 %709 мм2.7 м/с24 %
Мы используем cookies
Соглашаюсь